sensor_id;sensor_type;location;lat;lon;timestamp;P1;durP1;ratioP1;P2;durP2;ratioP2
34902;SDS011;21114;44.840;0.214;2022-12-05T00:02:13;13.73;;;12.13;;
34902;SDS011;21114;44.840;0.214;2022-12-05T00:04:39;14.93;;;13.07;;
34902;SDS011;21114;44.840;0.214;2022-12-05T00:07:05;13.10;;;11.68;;
34902;SDS011;21114;44.840;0.214;2022-12-05T00:09:31;14.82;;;12.05;;
34902;SDS011;21114;44.840;0.214;2022-12-05T00:11:57;13.98;;;11.50;;
34902;SDS011;21114;44.840;0.214;2022-12-05T00:14:23;16.63;;;13.98;;
34902;SDS011;21114;44.840;0.214;2022-12-05T00:16:49;18.63;;;13.82;;
34902;SDS011;21114;44.840;0.214;2022-12-05T00:19:16;15.65;;;12.27;;
34902;SDS011;21114;44.840;0.214;2022-12-05T00:21:42;16.08;;;13.10;;
34902;SDS011;21114;44.840;0.214;2022-12-05T00:24:10;15.80;;;12.93;;
34902;SDS011;21114;44.840;0.214;2022-12-05T00:27:25;14.48;;;11.68;;
34902;SDS011;21114;44.840;0.214;2022-12-05T00:29:51;12.68;;;10.60;;
34902;SDS011;21114;44.840;0.214;2022-12-05T00:32:17;15.43;;;12.38;;
34902;SDS011;21114;44.840;0.214;2022-12-05T00:34:43;15.00;;;11.93;;
34902;SDS011;21114;44.840;0.214;2022-12-05T00:37:09;14.98;;;11.32;;
34902;SDS011;21114;44.840;0.214;2022-12-05T00:39:35;14.93;;;12.10;;
34902;SDS011;21114;44.840;0.214;2022-12-05T00:42:02;15.32;;;11.90;;
34902;SDS011;21114;44.840;0.214;2022-12-05T00:44:28;17.20;;;13.63;;
34902;SDS011;21114;44.840;0.214;2022-12-05T00:46:54;15.07;;;12.07;;
34902;SDS011;21114;44.840;0.214;2022-12-05T00:49:20;16.30;;;12.30;;
34902;SDS011;21114;44.840;0.214;2022-12-05T00:51:46;12.43;;;10.85;;
34902;SDS011;21114;44.840;0.214;2022-12-05T00:54:13;14.00;;;11.50;;
34902;SDS011;21114;44.840;0.214;2022-12-05T00:57:28;14.20;;;11.25;;
34902;SDS011;21114;44.840;0.214;2022-12-05T00:59:55;13.40;;;11.95;;
34902;SDS011;21114;44.840;0.214;2022-12-05T01:02:21;14.93;;;11.75;;
34902;SDS011;21114;44.840;0.214;2022-12-05T01:04:47;13.70;;;10.35;;
34902;SDS011;21114;44.840;0.214;2022-12-05T01:07:13;14.60;;;10.85;;
34902;SDS011;21114;44.840;0.214;2022-12-05T01:09:39;16.02;;;11.40;;
34902;SDS011;21114;44.840;0.214;2022-12-05T01:12:06;13.43;;;10.90;;
34902;SDS011;21114;44.840;0.214;2022-12-05T01:14:32;13.32;;;10.15;;
34902;SDS011;21114;44.840;0.214;2022-12-05T01:16:59;15.32;;;13.20;;
34902;SDS011;21114;44.840;0.214;2022-12-05T01:19:26;15.38;;;12.60;;
34902;SDS011;21114;44.840;0.214;2022-12-05T01:22:41;15.98;;;12.27;;
34902;SDS011;21114;44.840;0.214;2022-12-05T01:25:07;15.25;;;13.10;;
34902;SDS011;21114;44.840;0.214;2022-12-05T01:27:33;14.90;;;13.10;;
34902;SDS011;21114;44.840;0.214;2022-12-05T01:29:59;18.52;;;12.07;;
34902;SDS011;21114;44.840;0.214;2022-12-05T01:32:25;14.75;;;11.63;;
34902;SDS011;21114;44.840;0.214;2022-12-05T01:34:53;15.80;;;12.40;;
34902;SDS011;21114;44.840;0.214;2022-12-05T01:38:09;17.92;;;11.68;;
34902;SDS011;21114;44.840;0.214;2022-12-05T01:41:24;15.15;;;11.30;;
34902;SDS011;21114;44.840;0.214;2022-12-05T01:47:19;12.57;;;10.93;;
34902;SDS011;21114;44.840;0.214;2022-12-05T01:50:17;13.05;;;10.80;;
34902;SDS011;21114;44.840;0.214;2022-12-05T01:52:44;14.30;;;10.25;;
34902;SDS011;21114;44.840;0.214;2022-12-05T01:55:11;13.52;;;11.25;;
34902;SDS011;21114;44.840;0.214;2022-12-05T01:58:27;14.25;;;10.98;;
34902;SDS011;21114;44.840;0.214;2022-12-05T02:01:41;12.27;;;9.82;;
34902;SDS011;21114;44.840;0.214;2022-12-05T02:04:07;12.18;;;10.57;;
34902;SDS011;21114;44.840;0.214;2022-12-05T02:06:33;15.80;;;12.15;;
34902;SDS011;21114;44.840;0.214;2022-12-05T02:08:59;13.90;;;10.05;;
34902;SDS011;21114;44.840;0.214;2022-12-05T02:11:26;13.70;;;9.57;;
34902;SDS011;21114;44.840;0.214;2022-12-05T02:14:43;16.70;;;11.15;;
34902;SDS011;21114;44.840;0.214;2022-12-05T02:23:20;13.10;;;10.57;;
34902;SDS011;21114;44.840;0.214;2022-12-05T02:35:09;11.73;;;10.48;;
34902;SDS011;21114;44.840;0.214;2022-12-05T02:38:35;13.30;;;10.45;;
34902;SDS011;21114;44.840;0.214;2022-12-05T02:44:36;13.95;;;9.77;;
34902;SDS011;21114;44.840;0.214;2022-12-05T02:47:51;14.77;;;10.00;;
34902;SDS011;21114;44.840;0.214;2022-12-05T02:51:06;10.90;;;9.15;;
34902;SDS011;21114;44.840;0.214;2022-12-05T02:54:23;12.52;;;9.40;;
34902;SDS011;21114;44.840;0.214;2022-12-05T02:57:42;11.07;;;9.20;;
34902;SDS011;21114;44.840;0.214;2022-12-05T03:00:58;10.32;;;8.70;;
34902;SDS011;21114;44.840;0.214;2022-12-05T03:03:24;11.07;;;9.55;;
34902;SDS011;21114;44.840;0.214;2022-12-05T03:06:46;13.20;;;10.35;;
34902;SDS011;21114;44.840;0.214;2022-12-05T03:10:03;12.07;;;10.82;;
34902;SDS011;21114;44.840;0.214;2022-12-05T03:13:20;10.23;;;8.50;;
34902;SDS011;21114;44.840;0.214;2022-12-05T03:16:37;12.45;;;9.43;;
34902;SDS011;21114;44.840;0.214;2022-12-05T03:19:57;10.65;;;8.98;;
34902;SDS011;21114;44.840;0.214;2022-12-05T03:23:19;10.38;;;8.80;;
34902;SDS011;21114;44.840;0.214;2022-12-05T03:34:35;13.02;;;9.07;;
34902;SDS011;21114;44.840;0.214;2022-12-05T03:37:56;10.80;;;8.77;;
34902;SDS011;21114;44.840;0.214;2022-12-05T03:44:00;10.63;;;9.57;;
34902;SDS011;21114;44.840;0.214;2022-12-05T03:47:27;9.90;;;7.75;;
34902;SDS011;21114;44.840;0.214;2022-12-05T03:50:45;10.88;;;8.60;;
34902;SDS011;21114;44.840;0.214;2022-12-05T03:54:10;9.30;;;7.60;;
34902;SDS011;21114;44.840;0.214;2022-12-05T03:57:28;9.82;;;8.07;;
34902;SDS011;21114;44.840;0.214;2022-12-05T04:00:45;9.80;;;7.75;;
34902;SDS011;21114;44.840;0.214;2022-12-05T04:03:46;12.48;;;8.52;;
34902;SDS011;21114;44.840;0.214;2022-12-05T04:07:03;10.38;;;7.38;;
34902;SDS011;21114;44.840;0.214;2022-12-05T04:10:21;10.20;;;8.18;;
34902;SDS011;21114;44.840;0.214;2022-12-05T04:13:38;15.07;;;9.00;;
34902;SDS011;21114;44.840;0.214;2022-12-05T04:16:57;9.02;;;7.75;;
34902;SDS011;21114;44.840;0.214;2022-12-05T04:20:15;10.65;;;8.60;;
34902;SDS011;21114;44.840;0.214;2022-12-05T04:23:59;11.75;;;9.48;;
34902;SDS011;21114;44.840;0.214;2022-12-05T04:26:59;12.43;;;9.00;;
34902;SDS011;21114;44.840;0.214;2022-12-05T04:30:19;8.70;;;7.80;;
34902;SDS011;21114;44.840;0.214;2022-12-05T04:33:44;10.73;;;6.88;;
34902;SDS011;21114;44.840;0.214;2022-12-05T04:37:03;9.77;;;8.27;;
34902;SDS011;21114;44.840;0.214;2022-12-05T04:43:14;11.25;;;8.15;;
34902;SDS011;21114;44.840;0.214;2022-12-05T04:46:29;8.23;;;7.25;;
34902;SDS011;21114;44.840;0.214;2022-12-05T04:48:57;9.70;;;8.23;;
34902;SDS011;21114;44.840;0.214;2022-12-05T04:52:12;10.25;;;7.78;;
34902;SDS011;21114;44.840;0.214;2022-12-05T04:55:28;8.52;;;7.22;;
34902;SDS011;21114;44.840;0.214;2022-12-05T04:58:47;9.38;;;8.23;;
34902;SDS011;21114;44.840;0.214;2022-12-05T05:01:16;7.97;;;7.07;;
34902;SDS011;21114;44.840;0.214;2022-12-05T05:04:33;11.23;;;7.50;;
34902;SDS011;21114;44.840;0.214;2022-12-05T05:07:49;10.15;;;7.68;;
34902;SDS011;21114;44.840;0.214;2022-12-05T05:13:58;9.00;;;7.03;;
34902;SDS011;21114;44.840;0.214;2022-12-05T05:17:13;11.45;;;7.72;;
34902;SDS011;21114;44.840;0.214;2022-12-05T05:19:39;8.73;;;7.00;;
34902;SDS011;21114;44.840;0.214;2022-12-05T05:22:05;8.75;;;7.40;;
34902;SDS011;21114;44.840;0.214;2022-12-05T05:24:31;7.95;;;6.30;;
34902;SDS011;21114;44.840;0.214;2022-12-05T05:26:57;9.32;;;7.43;;
34902;SDS011;21114;44.840;0.214;2022-12-05T05:29:23;10.52;;;7.57;;
34902;SDS011;21114;44.840;0.214;2022-12-05T05:31:49;8.77;;;6.88;;
34902;SDS011;21114;44.840;0.214;2022-12-05T05:34:15;10.45;;;7.72;;
34902;SDS011;21114;44.840;0.214;2022-12-05T05:36:41;11.90;;;8.80;;
34902;SDS011;21114;44.840;0.214;2022-12-05T05:39:10;9.50;;;7.00;;
34902;SDS011;21114;44.840;0.214;2022-12-05T05:42:25;11.95;;;8.05;;
34902;SDS011;21114;44.840;0.214;2022-12-05T05:44:51;12.45;;;7.15;;
34902;SDS011;21114;44.840;0.214;2022-12-05T05:47:17;12.73;;;8.13;;
34902;SDS011;21114;44.840;0.214;2022-12-05T05:49:43;9.02;;;6.70;;
34902;SDS011;21114;44.840;0.214;2022-12-05T05:52:09;8.48;;;7.28;;
34902;SDS011;21114;44.840;0.214;2022-12-05T05:54:36;35.40;;;12.60;;
34902;SDS011;21114;44.840;0.214;2022-12-05T05:57:50;19.45;;;9.05;;
34902;SDS011;21114;44.840;0.214;2022-12-05T06:00:16;15.85;;;7.18;;
34902;SDS011;21114;44.840;0.214;2022-12-05T06:02:42;15.05;;;7.03;;
34902;SDS011;21114;44.840;0.214;2022-12-05T06:05:09;16.00;;;8.40;;
34902;SDS011;21114;44.840;0.214;2022-12-05T06:07:35;9.93;;;7.40;;
34902;SDS011;21114;44.840;0.214;2022-12-05T06:10:01;12.48;;;7.47;;
34902;SDS011;21114;44.840;0.214;2022-12-05T06:12:27;17.92;;;7.28;;
34902;SDS011;21114;44.840;0.214;2022-12-05T06:14:53;18.67;;;7.20;;
34902;SDS011;21114;44.840;0.214;2022-12-05T06:17:19;14.70;;;6.32;;
34902;SDS011;21114;44.840;0.214;2022-12-05T06:19:45;12.68;;;6.45;;
34902;SDS011;21114;44.840;0.214;2022-12-05T06:22:11;13.95;;;7.03;;
34902;SDS011;21114;44.840;0.214;2022-12-05T06:24:37;17.08;;;6.95;;
34902;SDS011;21114;44.840;0.214;2022-12-05T06:27:03;11.80;;;6.93;;
34902;SDS011;21114;44.840;0.214;2022-12-05T06:29:29;21.00;;;10.55;;
34902;SDS011;21114;44.840;0.214;2022-12-05T06:31:56;11.77;;;7.35;;
34902;SDS011;21114;44.840;0.214;2022-12-05T06:34:22;17.33;;;7.68;;
34902;SDS011;21114;44.840;0.214;2022-12-05T06:36:48;58.50;;;12.20;;
34902;SDS011;21114;44.840;0.214;2022-12-05T06:39:14;34.30;;;10.23;;
34902;SDS011;21114;44.840;0.214;2022-12-05T06:41:40;27.00;;;7.35;;
34902;SDS011;21114;44.840;0.214;2022-12-05T06:44:06;31.38;;;9.73;;
34902;SDS011;21114;44.840;0.214;2022-12-05T06:46:32;37.95;;;12.02;;
34902;SDS011;21114;44.840;0.214;2022-12-05T06:48:58;91.82;;;40.55;;
34902;SDS011;21114;44.840;0.214;2022-12-05T06:51:24;40.25;;;11.88;;
34902;SDS011;21114;44.840;0.214;2022-12-05T06:53:50;58.90;;;15.40;;
34902;SDS011;21114;44.840;0.214;2022-12-05T06:56:17;51.15;;;15.70;;
34902;SDS011;21114;44.840;0.214;2022-12-05T06:59:33;23.85;;;9.32;;
34902;SDS011;21114;44.840;0.214;2022-12-05T07:02:00;68.45;;;16.40;;
34902;SDS011;21114;44.840;0.214;2022-12-05T07:04:26;20.55;;;9.27;;
34902;SDS011;21114;44.840;0.214;2022-12-05T07:06:53;30.92;;;10.00;;
34902;SDS011;21114;44.840;0.214;2022-12-05T07:09:43;38.85;;;10.43;;
34902;SDS011;21114;44.840;0.214;2022-12-05T07:12:10;36.17;;;11.98;;
34902;SDS011;21114;44.840;0.214;2022-12-05T07:15:25;42.38;;;10.45;;
34902;SDS011;21114;44.840;0.214;2022-12-05T07:17:51;43.63;;;9.70;;
34902;SDS011;21114;44.840;0.214;2022-12-05T07:20:17;32.95;;;10.75;;
34902;SDS011;21114;44.840;0.214;2022-12-05T07:22:43;64.05;;;19.77;;
34902;SDS011;21114;44.840;0.214;2022-12-05T07:25:10;26.75;;;10.50;;
34902;SDS011;21114;44.840;0.214;2022-12-05T07:27:36;19.23;;;9.25;;
34902;SDS011;21114;44.840;0.214;2022-12-05T07:30:03;35.78;;;11.60;;
34902;SDS011;21114;44.840;0.214;2022-12-05T07:33:18;77.28;;;14.63;;
34902;SDS011;21114;44.840;0.214;2022-12-05T07:35:44;48.25;;;18.73;;
34902;SDS011;21114;44.840;0.214;2022-12-05T07:38:10;50.17;;;13.95;;
34902;SDS011;21114;44.840;0.214;2022-12-05T07:40:36;38.95;;;10.27;;
34902;SDS011;21114;44.840;0.214;2022-12-05T07:43:02;21.95;;;8.98;;
34902;SDS011;21114;44.840;0.214;2022-12-05T07:45:28;54.67;;;11.60;;
34902;SDS011;21114;44.840;0.214;2022-12-05T07:47:54;24.20;;;8.77;;
34902;SDS011;21114;44.840;0.214;2022-12-05T07:50:20;53.67;;;15.00;;
34902;SDS011;21114;44.840;0.214;2022-12-05T07:52:46;83.80;;;14.98;;
34902;SDS011;21114;44.840;0.214;2022-12-05T07:55:12;67.05;;;17.92;;
34902;SDS011;21114;44.840;0.214;2022-12-05T07:57:38;20.52;;;9.38;;
34902;SDS011;21114;44.840;0.214;2022-12-05T08:00:05;62.10;;;13.50;;
34902;SDS011;21114;44.840;0.214;2022-12-05T08:02:31;49.72;;;13.73;;
34902;SDS011;21114;44.840;0.214;2022-12-05T08:04:57;35.95;;;11.23;;
34902;SDS011;21114;44.840;0.214;2022-12-05T08:07:23;55.70;;;10.18;;
34902;SDS011;21114;44.840;0.214;2022-12-05T08:09:49;23.63;;;12.93;;
34902;SDS011;21114;44.840;0.214;2022-12-05T08:12:15;29.92;;;13.95;;
34902;SDS011;21114;44.840;0.214;2022-12-05T08:14:42;12.70;;;9.05;;
34902;SDS011;21114;44.840;0.214;2022-12-05T08:17:08;18.00;;;9.25;;
34902;SDS011;21114;44.840;0.214;2022-12-05T08:19:34;18.08;;;9.52;;
34902;SDS011;21114;44.840;0.214;2022-12-05T08:22:00;16.08;;;8.68;;
34902;SDS011;21114;44.840;0.214;2022-12-05T08:24:26;27.15;;;8.93;;
34902;SDS011;21114;44.840;0.214;2022-12-05T08:26:52;10.15;;;8.10;;
34902;SDS011;21114;44.840;0.214;2022-12-05T08:29:19;14.40;;;8.85;;
34902;SDS011;21114;44.840;0.214;2022-12-05T08:32:34;23.60;;;9.60;;
34902;SDS011;21114;44.840;0.214;2022-12-05T08:35:00;31.65;;;13.30;;
34902;SDS011;21114;44.840;0.214;2022-12-05T08:37:26;11.13;;;8.35;;
34902;SDS011;21114;44.840;0.214;2022-12-05T08:39:52;26.58;;;10.13;;
34902;SDS011;21114;44.840;0.214;2022-12-05T08:42:18;15.27;;;8.93;;
34902;SDS011;21114;44.840;0.214;2022-12-05T08:44:44;15.93;;;8.68;;
34902;SDS011;21114;44.840;0.214;2022-12-05T08:47:10;19.25;;;9.60;;
34902;SDS011;21114;44.840;0.214;2022-12-05T08:49:36;14.80;;;9.80;;
34902;SDS011;21114;44.840;0.214;2022-12-05T08:52:02;17.13;;;11.07;;
34902;SDS011;21114;44.840;0.214;2022-12-05T08:54:28;11.70;;;8.65;;
34902;SDS011;21114;44.840;0.214;2022-12-05T08:56:54;18.10;;;10.88;;
34902;SDS011;21114;44.840;0.214;2022-12-05T08:59:20;16.05;;;11.73;;
34902;SDS011;21114;44.840;0.214;2022-12-05T09:01:48;11.63;;;10.43;;
34902;SDS011;21114;44.840;0.214;2022-12-05T09:04:53;14.93;;;9.60;;
34902;SDS011;21114;44.840;0.214;2022-12-05T09:07:19;20.65;;;12.63;;
34902;SDS011;21114;44.840;0.214;2022-12-05T09:09:45;13.90;;;8.70;;
34902;SDS011;21114;44.840;0.214;2022-12-05T09:12:11;22.38;;;10.02;;
34902;SDS011;21114;44.840;0.214;2022-12-05T09:14:38;23.65;;;10.07;;
34902;SDS011;21114;44.840;0.214;2022-12-05T09:17:05;35.72;;;11.82;;
34902;SDS011;21114;44.840;0.214;2022-12-05T09:19:31;18.25;;;11.70;;
34902;SDS011;21114;44.840;0.214;2022-12-05T09:21:57;22.25;;;10.07;;
34902;SDS011;21114;44.840;0.214;2022-12-05T09:24:24;10.07;;;8.38;;
34902;SDS011;21114;44.840;0.214;2022-12-05T09:26:50;14.85;;;8.63;;
34902;SDS011;21114;44.840;0.214;2022-12-05T09:29:16;12.65;;;8.52;;
34902;SDS011;21114;44.840;0.214;2022-12-05T09:31:42;12.82;;;10.98;;
34902;SDS011;21114;44.840;0.214;2022-12-05T09:34:08;12.20;;;9.32;;
34902;SDS011;21114;44.840;0.214;2022-12-05T09:36:35;11.68;;;8.23;;
34902;SDS011;21114;44.840;0.214;2022-12-05T09:39:02;19.35;;;14.52;;
34902;SDS011;21114;44.840;0.214;2022-12-05T09:42:22;10.38;;;7.72;;
34902;SDS011;21114;44.840;0.214;2022-12-05T09:45:42;16.67;;;12.10;;
34902;SDS011;21114;44.840;0.214;2022-12-05T09:48:59;10.32;;;8.18;;
34902;SDS011;21114;44.840;0.214;2022-12-05T09:52:22;8.73;;;7.32;;
34902;SDS011;21114;44.840;0.214;2022-12-05T09:55:46;10.98;;;8.45;;
34902;SDS011;21114;44.840;0.214;2022-12-05T09:58:53;15.10;;;8.30;;
34902;SDS011;21114;44.840;0.214;2022-12-05T10:02:21;10.93;;;8.35;;
34902;SDS011;21114;44.840;0.214;2022-12-05T10:08:18;10.52;;;9.38;;
34902;SDS011;21114;44.840;0.214;2022-12-05T10:11:37;10.38;;;8.32;;
34902;SDS011;21114;44.840;0.214;2022-12-05T10:15:00;52.05;;;40.92;;
34902;SDS011;21114;44.840;0.214;2022-12-05T10:26:48;8.05;;;6.90;;
34902;SDS011;21114;44.840;0.214;2022-12-05T10:32:51;8.50;;;7.38;;
34902;SDS011;21114;44.840;0.214;2022-12-05T10:36:08;8.80;;;7.90;;
34902;SDS011;21114;44.840;0.214;2022-12-05T10:39:23;9.30;;;8.40;;
34902;SDS011;21114;44.840;0.214;2022-12-05T10:41:49;12.55;;;10.52;;
34902;SDS011;21114;44.840;0.214;2022-12-05T10:44:15;10.52;;;8.80;;
34902;SDS011;21114;44.840;0.214;2022-12-05T10:46:41;14.07;;;9.00;;
34902;SDS011;21114;44.840;0.214;2022-12-05T10:49:09;9.15;;;7.80;;
34902;SDS011;21114;44.840;0.214;2022-12-05T10:52:24;9.93;;;7.75;;
34902;SDS011;21114;44.840;0.214;2022-12-05T10:54:53;9.52;;;8.32;;
34902;SDS011;21114;44.840;0.214;2022-12-05T10:58:11;8.85;;;7.30;;
34902;SDS011;21114;44.840;0.214;2022-12-05T11:01:25;10.75;;;8.98;;
34902;SDS011;21114;44.840;0.214;2022-12-05T11:03:55;10.02;;;9.00;;
34902;SDS011;21114;44.840;0.214;2022-12-05T11:10:16;9.63;;;8.25;;
34902;SDS011;21114;44.840;0.214;2022-12-05T11:13:31;9.63;;;7.80;;
34902;SDS011;21114;44.840;0.214;2022-12-05T11:16:50;8.95;;;7.18;;
34902;SDS011;21114;44.840;0.214;2022-12-05T11:22:57;7.70;;;6.47;;
34902;SDS011;21114;44.840;0.214;2022-12-05T11:26:32;7.72;;;6.32;;
34902;SDS011;21114;44.840;0.214;2022-12-05T11:32:41;7.13;;;6.40;;
34902;SDS011;21114;44.840;0.214;2022-12-05T11:56:36;6.88;;;5.43;;
34902;SDS011;21114;44.840;0.214;2022-12-05T12:05:43;8.68;;;7.78;;
34902;SDS011;21114;44.840;0.214;2022-12-05T12:09:00;7.10;;;5.70;;
34902;SDS011;21114;44.840;0.214;2022-12-05T12:14:55;6.13;;;5.13;;
34902;SDS011;21114;44.840;0.214;2022-12-05T12:26:17;6.65;;;4.90;;
34902;SDS011;21114;44.840;0.214;2022-12-05T12:37:02;5.60;;;4.50;;
34902;SDS011;21114;44.840;0.214;2022-12-05T12:51:03;4.15;;;3.60;;
34902;SDS011;21114;44.840;0.214;2022-12-05T12:53:34;3.97;;;3.58;;
34902;SDS011;21114;44.840;0.214;2022-12-05T12:56:57;4.15;;;3.58;;
34902;SDS011;21114;44.840;0.214;2022-12-05T13:03:02;3.60;;;2.92;;
34902;SDS011;21114;44.840;0.214;2022-12-05T13:06:32;4.65;;;3.65;;
34902;SDS011;21114;44.840;0.214;2022-12-05T13:09:51;4.50;;;3.58;;
34902;SDS011;21114;44.840;0.214;2022-12-05T13:13:06;4.43;;;3.47;;
34902;SDS011;21114;44.840;0.214;2022-12-05T13:16:26;4.15;;;3.25;;
34902;SDS011;21114;44.840;0.214;2022-12-05T13:19:43;3.83;;;3.38;;
34902;SDS011;21114;44.840;0.214;2022-12-05T13:22:59;3.90;;;3.00;;
34902;SDS011;21114;44.840;0.214;2022-12-05T13:25:56;4.60;;;3.75;;
34902;SDS011;21114;44.840;0.214;2022-12-05T13:29:14;7.60;;;5.05;;
34902;SDS011;21114;44.840;0.214;2022-12-05T13:32:33;3.22;;;2.58;;
34902;SDS011;21114;44.840;0.214;2022-12-05T13:35:50;6.75;;;4.18;;
34902;SDS011;21114;44.840;0.214;2022-12-05T13:39:02;5.82;;;5.18;;
34902;SDS011;21114;44.840;0.214;2022-12-05T13:42:45;6.22;;;4.53;;
34902;SDS011;21114;44.840;0.214;2022-12-05T13:45:16;4.85;;;3.85;;
34902;SDS011;21114;44.840;0.214;2022-12-05T13:48:32;7.68;;;4.75;;
34902;SDS011;21114;44.840;0.214;2022-12-05T13:51:47;5.85;;;3.78;;
34902;SDS011;21114;44.840;0.214;2022-12-05T14:07:58;4.93;;;3.95;;
34902;SDS011;21114;44.840;0.214;2022-12-05T14:11:13;3.38;;;2.80;;
34902;SDS011;21114;44.840;0.214;2022-12-05T14:13:40;4.10;;;2.92;;
34902;SDS011;21114;44.840;0.214;2022-12-05T14:16:45;4.63;;;2.97;;
34902;SDS011;21114;44.840;0.214;2022-12-05T14:19:14;2.78;;;2.33;;
34902;SDS011;21114;44.840;0.214;2022-12-05T14:22:38;5.82;;;3.47;;
34902;SDS011;21114;44.840;0.214;2022-12-05T14:34:28;8.52;;;6.32;;
34902;SDS011;21114;44.840;0.214;2022-12-05T14:37:51;7.47;;;4.28;;
34902;SDS011;21114;44.840;0.214;2022-12-05T14:41:14;9.65;;;5.20;;
34902;SDS011;21114;44.840;0.214;2022-12-05T14:44:30;13.07;;;8.23;;
34902;SDS011;21114;44.840;0.214;2022-12-05T14:46:58;10.18;;;7.47;;
34902;SDS011;21114;44.840;0.214;2022-12-05T15:03:56;11.68;;;9.18;;
34902;SDS011;21114;44.840;0.214;2022-12-05T15:10:00;12.63;;;8.88;;
34902;SDS011;21114;44.840;0.214;2022-12-05T15:16:30;4.53;;;3.38;;
34902;SDS011;21114;44.840;0.214;2022-12-05T15:19:51;4.65;;;3.42;;
34902;SDS011;21114;44.840;0.214;2022-12-05T15:25:59;7.38;;;5.30;;
34902;SDS011;21114;44.840;0.214;2022-12-05T15:28:25;8.98;;;5.80;;
34902;SDS011;21114;44.840;0.214;2022-12-05T15:30:53;5.85;;;5.03;;
34902;SDS011;21114;44.840;0.214;2022-12-05T15:34:13;6.95;;;5.40;;
34902;SDS011;21114;44.840;0.214;2022-12-05T15:42:46;6.55;;;3.83;;
34902;SDS011;21114;44.840;0.214;2022-12-05T15:48:56;9.60;;;5.20;;
34902;SDS011;21114;44.840;0.214;2022-12-05T15:52:22;9.70;;;7.00;;
34902;SDS011;21114;44.840;0.214;2022-12-05T15:55:41;6.97;;;5.00;;
34902;SDS011;21114;44.840;0.214;2022-12-05T16:01:38;12.65;;;5.60;;
34902;SDS011;21114;44.840;0.214;2022-12-05T16:04:55;10.57;;;6.57;;
34902;SDS011;21114;44.840;0.214;2022-12-05T16:08:10;14.00;;;7.05;;
34902;SDS011;21114;44.840;0.214;2022-12-05T16:10:36;8.10;;;6.85;;
34902;SDS011;21114;44.840;0.214;2022-12-05T16:13:03;7.20;;;5.20;;
34902;SDS011;21114;44.840;0.214;2022-12-05T16:16:19;7.97;;;4.78;;
34902;SDS011;21114;44.840;0.214;2022-12-05T16:19:34;5.40;;;4.78;;
34902;SDS011;21114;44.840;0.214;2022-12-05T16:22:15;8.23;;;6.97;;
34902;SDS011;21114;44.840;0.214;2022-12-05T16:25:31;7.95;;;5.80;;
34902;SDS011;21114;44.840;0.214;2022-12-05T16:28:58;6.80;;;5.63;;
34902;SDS011;21114;44.840;0.214;2022-12-05T16:32:15;9.38;;;7.00;;
34902;SDS011;21114;44.840;0.214;2022-12-05T16:38:13;10.00;;;8.45;;
34902;SDS011;21114;44.840;0.214;2022-12-05T16:41:36;13.43;;;8.82;;
34902;SDS011;21114;44.840;0.214;2022-12-05T16:44:58;18.98;;;10.60;;
34902;SDS011;21114;44.840;0.214;2022-12-05T16:47:53;15.88;;;11.02;;
34902;SDS011;21114;44.840;0.214;2022-12-05T16:53:49;15.32;;;12.88;;
34902;SDS011;21114;44.840;0.214;2022-12-05T16:57:04;21.83;;;14.45;;
34902;SDS011;21114;44.840;0.214;2022-12-05T16:59:31;22.90;;;16.83;;
34902;SDS011;21114;44.840;0.214;2022-12-05T17:02:46;22.98;;;17.10;;
34902;SDS011;21114;44.840;0.214;2022-12-05T17:05:12;24.90;;;19.65;;
34902;SDS011;21114;44.840;0.214;2022-12-05T17:07:38;29.70;;;19.02;;
34902;SDS011;21114;44.840;0.214;2022-12-05T17:10:05;28.65;;;22.38;;
34902;SDS011;21114;44.840;0.214;2022-12-05T17:12:31;29.90;;;22.73;;
34902;SDS011;21114;44.840;0.214;2022-12-05T17:14:58;28.75;;;23.02;;
34902;SDS011;21114;44.840;0.214;2022-12-05T17:17:24;28.45;;;21.48;;
34902;SDS011;21114;44.840;0.214;2022-12-05T17:19:50;24.98;;;19.38;;
34902;SDS011;21114;44.840;0.214;2022-12-05T17:22:16;30.00;;;23.58;;
34902;SDS011;21114;44.840;0.214;2022-12-05T17:24:42;35.20;;;23.98;;
34902;SDS011;21114;44.840;0.214;2022-12-05T17:27:09;32.40;;;21.35;;
34902;SDS011;21114;44.840;0.214;2022-12-05T17:30:24;27.65;;;21.38;;
34902;SDS011;21114;44.840;0.214;2022-12-05T17:32:50;28.55;;;19.67;;
34902;SDS011;21114;44.840;0.214;2022-12-05T17:35:17;24.38;;;19.23;;
34902;SDS011;21114;44.840;0.214;2022-12-05T17:38:32;24.30;;;18.33;;
34902;SDS011;21114;44.840;0.214;2022-12-05T17:40:58;18.90;;;15.50;;
34902;SDS011;21114;44.840;0.214;2022-12-05T17:43:24;19.50;;;15.43;;
34902;SDS011;21114;44.840;0.214;2022-12-05T17:45:50;19.20;;;14.50;;
34902;SDS011;21114;44.840;0.214;2022-12-05T17:48:16;21.75;;;16.77;;
34902;SDS011;21114;44.840;0.214;2022-12-05T17:50:44;18.48;;;15.55;;
34902;SDS011;21114;44.840;0.214;2022-12-05T17:53:58;28.45;;;20.35;;
34902;SDS011;21114;44.840;0.214;2022-12-05T17:56:25;23.83;;;18.77;;
34902;SDS011;21114;44.840;0.214;2022-12-05T17:58:51;22.70;;;16.95;;
34902;SDS011;21114;44.840;0.214;2022-12-05T18:01:18;25.80;;;16.42;;
34902;SDS011;21114;44.840;0.214;2022-12-05T18:04:33;18.38;;;13.82;;
34902;SDS011;21114;44.840;0.214;2022-12-05T18:06:59;15.88;;;12.57;;
34902;SDS011;21114;44.840;0.214;2022-12-05T18:09:25;14.63;;;9.75;;
34902;SDS011;21114;44.840;0.214;2022-12-05T18:11:51;12.18;;;8.15;;
34902;SDS011;21114;44.840;0.214;2022-12-05T18:14:17;12.27;;;9.38;;
34902;SDS011;21114;44.840;0.214;2022-12-05T18:16:43;12.55;;;9.35;;
34902;SDS011;21114;44.840;0.214;2022-12-05T18:19:09;15.07;;;11.70;;
34902;SDS011;21114;44.840;0.214;2022-12-05T18:21:36;38.90;;;24.13;;
34902;SDS011;21114;44.840;0.214;2022-12-05T18:24:52;30.60;;;19.65;;
34902;SDS011;21114;44.840;0.214;2022-12-05T18:27:20;26.25;;;19.67;;
34902;SDS011;21114;44.840;0.214;2022-12-05T18:30:34;31.10;;;22.02;;
34902;SDS011;21114;44.840;0.214;2022-12-05T18:33:01;25.92;;;18.60;;
34902;SDS011;21114;44.840;0.214;2022-12-05T18:35:27;21.85;;;16.55;;
34902;SDS011;21114;44.840;0.214;2022-12-05T18:38:19;24.17;;;16.33;;
34902;SDS011;21114;44.840;0.214;2022-12-05T18:40:45;18.77;;;15.57;;
34902;SDS011;21114;44.840;0.214;2022-12-05T18:43:11;20.02;;;15.23;;
34902;SDS011;21114;44.840;0.214;2022-12-05T18:45:37;15.35;;;12.93;;
34902;SDS011;21114;44.840;0.214;2022-12-05T18:48:04;11.93;;;9.32;;
34902;SDS011;21114;44.840;0.214;2022-12-05T18:50:30;17.85;;;12.50;;
34902;SDS011;21114;44.840;0.214;2022-12-05T18:52:56;18.48;;;12.65;;
34902;SDS011;21114;44.840;0.214;2022-12-05T18:55:22;21.52;;;15.40;;
34902;SDS011;21114;44.840;0.214;2022-12-05T18:57:48;17.70;;;12.95;;
34902;SDS011;21114;44.840;0.214;2022-12-05T19:00:14;17.77;;;11.68;;
34902;SDS011;21114;44.840;0.214;2022-12-05T19:02:41;14.65;;;10.25;;
34902;SDS011;21114;44.840;0.214;2022-12-05T19:05:07;14.00;;;10.05;;
34902;SDS011;21114;44.840;0.214;2022-12-05T19:07:33;18.75;;;11.48;;
34902;SDS011;21114;44.840;0.214;2022-12-05T19:09:59;12.57;;;10.25;;
34902;SDS011;21114;44.840;0.214;2022-12-05T19:12:25;10.48;;;8.15;;
34902;SDS011;21114;44.840;0.214;2022-12-05T19:14:51;9.60;;;8.45;;
34902;SDS011;21114;44.840;0.214;2022-12-05T19:17:17;11.13;;;8.98;;
34902;SDS011;21114;44.840;0.214;2022-12-05T19:19:43;9.82;;;7.72;;
34902;SDS011;21114;44.840;0.214;2022-12-05T19:22:10;7.78;;;6.45;;
34902;SDS011;21114;44.840;0.214;2022-12-05T19:24:36;9.20;;;7.85;;
34902;SDS011;21114;44.840;0.214;2022-12-05T19:27:02;7.95;;;5.97;;
34902;SDS011;21114;44.840;0.214;2022-12-05T19:29:28;58.55;;;29.00;;